<?xml version="1.0" encoding="UTF-8" standalone="no" ?>
<gpx xmlns="http://www.topografix.com/GPX/1/1" xmlns:xsi="http://www.w3.org/2001/XMLSchema-instance" xsi:schemaLocation="http://www.topografix.com/GPX/1/1 http://www.topografix.com/GPX/1/1/gpx.xsd" version="1.1" creator="VisuGPX - https://www.visugpx.com">
  <metadata>
    <name>11883208-lac du Lou Roche Jaille Col Montfiot</name>
  </metadata>
  <trk>
    <name><![CDATA[11883208-lac du Lou Roche Jaille Col Montfiot]]></name>
    <trkseg>
      <trkpt lat="45.31591" lon="6.53751">
        <ele>1755</ele>
        <time>2020-08-17T20:42:12Z</time>
      </trkpt>
      <trkpt lat="45.31176" lon="6.53725">
        <ele>1795</ele>
        <time>2020-08-17T20:51:26Z</time>
      </trkpt>
      <trkpt lat="45.30688" lon="6.53806">
        <ele>1840</ele>
        <time>2020-08-17T21:02:22Z</time>
      </trkpt>
      <trkpt lat="45.305" lon="6.53715">
        <ele>1885</ele>
        <time>2020-08-17T21:06:47Z</time>
      </trkpt>
      <trkpt lat="45.30378" lon="6.53712">
        <ele>1906</ele>
        <time>2020-08-17T21:09:30Z</time>
      </trkpt>
      <trkpt lat="45.30192" lon="6.53691">
        <ele>1911</ele>
        <time>2020-08-17T21:13:39Z</time>
      </trkpt>
      <trkpt lat="45.30049" lon="6.53584">
        <ele>1935</ele>
        <time>2020-08-17T21:17:14Z</time>
      </trkpt>
      <trkpt lat="45.29968" lon="6.53438">
        <ele>1954</ele>
        <time>2020-08-17T21:20:09Z</time>
      </trkpt>
      <trkpt lat="45.29925" lon="6.5339">
        <ele>1959</ele>
        <time>2020-08-17T21:21:22Z</time>
      </trkpt>
      <trkpt lat="45.29898" lon="6.53439">
        <ele>1949</ele>
        <time>2020-08-17T21:22:20Z</time>
      </trkpt>
      <trkpt lat="45.29771" lon="6.53416">
        <ele>1979</ele>
        <time>2020-08-17T21:25:11Z</time>
      </trkpt>
      <trkpt lat="45.29629" lon="6.53378">
        <ele>1998</ele>
        <time>2020-08-17T21:28:24Z</time>
      </trkpt>
      <trkpt lat="45.29295" lon="6.53041">
        <ele>2049</ele>
        <time>2020-08-17T21:37:31Z</time>
      </trkpt>
      <trkpt lat="45.29424" lon="6.53159">
        <ele>2044</ele>
        <time>2020-08-17T21:40:55Z</time>
      </trkpt>
      <trkpt lat="45.29524" lon="6.53184">
        <ele>2044</ele>
        <time>2020-08-17T21:43:11Z</time>
      </trkpt>
      <trkpt lat="45.29527" lon="6.53253">
        <ele>2025</ele>
        <time>2020-08-17T21:44:16Z</time>
      </trkpt>
      <trkpt lat="45.29612" lon="6.53369">
        <ele>1999</ele>
        <time>2020-08-17T21:46:53Z</time>
      </trkpt>
      <trkpt lat="45.29521" lon="6.53264">
        <ele>2023</ele>
        <time>2020-08-17T21:49:29Z</time>
      </trkpt>
      <trkpt lat="45.29291" lon="6.53021">
        <ele>2051</ele>
        <time>2020-08-17T21:55:52Z</time>
      </trkpt>
      <trkpt lat="45.29207" lon="6.52884">
        <ele>2056</ele>
        <time>2020-08-17T21:58:42Z</time>
      </trkpt>
      <trkpt lat="45.29155" lon="6.52777">
        <ele>2067</ele>
        <time>2020-08-17T22:00:44Z</time>
      </trkpt>
      <trkpt lat="45.29083" lon="6.52721">
        <ele>2068</ele>
        <time>2020-08-17T22:02:34Z</time>
      </trkpt>
      <trkpt lat="45.29023" lon="6.52579">
        <ele>2084</ele>
        <time>2020-08-17T22:05:10Z</time>
      </trkpt>
      <trkpt lat="45.28959" lon="6.52511">
        <ele>2085</ele>
        <time>2020-08-17T22:06:56Z</time>
      </trkpt>
      <trkpt lat="45.28866" lon="6.52528">
        <ele>2076</ele>
        <time>2020-08-17T22:09:01Z</time>
      </trkpt>
      <trkpt lat="45.28748" lon="6.52519">
        <ele>2085</ele>
        <time>2020-08-17T22:11:39Z</time>
      </trkpt>
      <trkpt lat="45.28681" lon="6.52532">
        <ele>2090</ele>
        <time>2020-08-17T22:13:09Z</time>
      </trkpt>
      <trkpt lat="45.28627" lon="6.52421">
        <ele>2121</ele>
        <time>2020-08-17T22:15:16Z</time>
      </trkpt>
      <trkpt lat="45.28474" lon="6.5239">
        <ele>2146</ele>
        <time>2020-08-17T22:18:42Z</time>
      </trkpt>
      <trkpt lat="45.2841" lon="6.52311">
        <ele>2187</ele>
        <time>2020-08-17T22:20:35Z</time>
      </trkpt>
      <trkpt lat="45.28367" lon="6.5233">
        <ele>2188</ele>
        <time>2020-08-17T22:21:35Z</time>
      </trkpt>
      <trkpt lat="45.28387" lon="6.52289">
        <ele>2199</ele>
        <time>2020-08-17T22:22:22Z</time>
      </trkpt>
      <trkpt lat="45.28311" lon="6.52246">
        <ele>2215</ele>
        <time>2020-08-17T22:24:11Z</time>
      </trkpt>
      <trkpt lat="45.28276" lon="6.52192">
        <ele>2229</ele>
        <time>2020-08-17T22:25:20Z</time>
      </trkpt>
      <trkpt lat="45.2823" lon="6.5217">
        <ele>2239</ele>
        <time>2020-08-17T22:26:25Z</time>
      </trkpt>
      <trkpt lat="45.28154" lon="6.5213">
        <ele>2273</ele>
        <time>2020-08-17T22:28:13Z</time>
      </trkpt>
      <trkpt lat="45.28027" lon="6.5223">
        <ele>2305</ele>
        <time>2020-08-17T22:31:27Z</time>
      </trkpt>
      <trkpt lat="45.28017" lon="6.52275">
        <ele>2306</ele>
        <time>2020-08-17T22:32:11Z</time>
      </trkpt>
      <trkpt lat="45.27956" lon="6.52293">
        <ele>2309</ele>
        <time>2020-08-17T22:33:34Z</time>
      </trkpt>
      <trkpt lat="45.27841" lon="6.52376">
        <ele>2332</ele>
        <time>2020-08-17T22:36:27Z</time>
      </trkpt>
      <trkpt lat="45.27646" lon="6.52361">
        <ele>2384</ele>
        <time>2020-08-17T22:40:47Z</time>
      </trkpt>
      <trkpt lat="45.276" lon="6.52181">
        <ele>2393</ele>
        <time>2020-08-17T22:43:47Z</time>
      </trkpt>
      <trkpt lat="45.27504" lon="6.52109">
        <ele>2401</ele>
        <time>2020-08-17T22:46:12Z</time>
      </trkpt>
      <trkpt lat="45.2744" lon="6.52058">
        <ele>2407</ele>
        <time>2020-08-17T22:47:50Z</time>
      </trkpt>
      <trkpt lat="45.27448" lon="6.51961">
        <ele>2419</ele>
        <time>2020-08-17T22:49:21Z</time>
      </trkpt>
      <trkpt lat="45.27397" lon="6.51939">
        <ele>2432</ele>
        <time>2020-08-17T22:50:33Z</time>
      </trkpt>
      <trkpt lat="45.27399" lon="6.51831">
        <ele>2454</ele>
        <time>2020-08-17T22:52:14Z</time>
      </trkpt>
      <trkpt lat="45.2741" lon="6.51676">
        <ele>2503</ele>
        <time>2020-08-17T22:54:40Z</time>
      </trkpt>
      <trkpt lat="45.27148" lon="6.51293">
        <ele>2585</ele>
        <time>2020-08-17T23:03:02Z</time>
      </trkpt>
      <trkpt lat="45.27052" lon="6.51199">
        <ele>2603</ele>
        <time>2020-08-17T23:05:38Z</time>
      </trkpt>
      <trkpt lat="45.26991" lon="6.51163">
        <ele>2620</ele>
        <time>2020-08-17T23:07:06Z</time>
      </trkpt>
      <trkpt lat="45.26884" lon="6.51129">
        <ele>2617</ele>
        <time>2020-08-17T23:09:32Z</time>
      </trkpt>
      <trkpt lat="45.27193" lon="6.50715">
        <ele>2667</ele>
        <time>2020-08-17T23:18:59Z</time>
      </trkpt>
      <trkpt lat="45.27594" lon="6.50678">
        <ele>2679</ele>
        <time>2020-08-17T23:27:55Z</time>
      </trkpt>
      <trkpt lat="45.27848" lon="6.50708">
        <ele>2705</ele>
        <time>2020-08-17T23:33:35Z</time>
      </trkpt>
      <trkpt lat="45.28132" lon="6.50648">
        <ele>2705</ele>
        <time>2020-08-17T23:39:58Z</time>
      </trkpt>
      <trkpt lat="45.28283" lon="6.50511">
        <ele>2665</ele>
        <time>2020-08-17T23:43:57Z</time>
      </trkpt>
      <trkpt lat="45.28404" lon="6.50431">
        <ele>2651</ele>
        <time>2020-08-17T23:46:55Z</time>
      </trkpt>
      <trkpt lat="45.28582" lon="6.50635">
        <ele>2609</ele>
        <time>2020-08-17T23:52:01Z</time>
      </trkpt>
      <trkpt lat="45.28727" lon="6.50715">
        <ele>2600</ele>
        <time>2020-08-17T23:55:28Z</time>
      </trkpt>
      <trkpt lat="45.2866" lon="6.5079">
        <ele>2585</ele>
        <time>2020-08-17T23:57:22Z</time>
      </trkpt>
      <trkpt lat="45.2869" lon="6.50906">
        <ele>2555</ele>
        <time>2020-08-17T23:59:18Z</time>
      </trkpt>
      <trkpt lat="45.28844" lon="6.50931">
        <ele>2522</ele>
        <time>2020-08-18T00:02:45Z</time>
      </trkpt>
      <trkpt lat="45.28905" lon="6.50991">
        <ele>2501</ele>
        <time>2020-08-18T00:04:24Z</time>
      </trkpt>
      <trkpt lat="45.28947" lon="6.50957">
        <ele>2514</ele>
        <time>2020-08-18T00:05:28Z</time>
      </trkpt>
      <trkpt lat="45.29035" lon="6.51077">
        <ele>2503</ele>
        <time>2020-08-18T00:08:11Z</time>
      </trkpt>
      <trkpt lat="45.29065" lon="6.51195">
        <ele>2489</ele>
        <time>2020-08-18T00:10:09Z</time>
      </trkpt>
      <trkpt lat="45.29041" lon="6.51305">
        <ele>2475</ele>
        <time>2020-08-18T00:11:57Z</time>
      </trkpt>
      <trkpt lat="45.28854" lon="6.51307">
        <ele>2458</ele>
        <time>2020-08-18T00:16:06Z</time>
      </trkpt>
      <trkpt lat="45.28947" lon="6.51429">
        <ele>2424</ele>
        <time>2020-08-18T00:18:55Z</time>
      </trkpt>
      <trkpt lat="45.28956" lon="6.51691">
        <ele>2372</ele>
        <time>2020-08-18T00:23:02Z</time>
      </trkpt>
      <trkpt lat="45.28914" lon="6.51807">
        <ele>2362</ele>
        <time>2020-08-18T00:25:04Z</time>
      </trkpt>
      <trkpt lat="45.28835" lon="6.51824">
        <ele>2342</ele>
        <time>2020-08-18T00:26:51Z</time>
      </trkpt>
      <trkpt lat="45.2885" lon="6.52013">
        <ele>2289</ele>
        <time>2020-08-18T00:29:49Z</time>
      </trkpt>
      <trkpt lat="45.28965" lon="6.52124">
        <ele>2241</ele>
        <time>2020-08-18T00:32:55Z</time>
      </trkpt>
      <trkpt lat="45.29083" lon="6.52326">
        <ele>2184</ele>
        <time>2020-08-18T00:37:01Z</time>
      </trkpt>
      <trkpt lat="45.29195" lon="6.52489">
        <ele>2155</ele>
        <time>2020-08-18T00:40:35Z</time>
      </trkpt>
      <trkpt lat="45.29303" lon="6.52768">
        <ele>2108</ele>
        <time>2020-08-18T00:45:34Z</time>
      </trkpt>
      <trkpt lat="45.2934" lon="6.53062">
        <ele>2051</ele>
        <time>2020-08-18T00:50:15Z</time>
      </trkpt>
      <trkpt lat="45.29569" lon="6.53296">
        <ele>2013</ele>
        <time>2020-08-18T00:56:31Z</time>
      </trkpt>
      <trkpt lat="45.29808" lon="6.53433">
        <ele>1968</ele>
        <time>2020-08-18T01:02:15Z</time>
      </trkpt>
      <trkpt lat="45.30134" lon="6.53639">
        <ele>1925</ele>
        <time>2020-08-18T01:10:11Z</time>
      </trkpt>
      <trkpt lat="45.30616" lon="6.53777">
        <ele>1848</ele>
        <time>2020-08-18T01:21:07Z</time>
      </trkpt>
      <trkpt lat="45.31591" lon="6.53751">
        <ele>1755</ele>
        <time>2020-08-18T01:42:48Z</time>
      </trkpt>
    </trkseg>
  </trk>
</gpx>